Stanley, ID (83278)

1:16 PM MST on January 20, 2017 (GMT -0700)
MD8425 | | Change Station
Active Advisory: Areal Flood Advisory

Elev 6645 ft 44.20 °N, 114.90 °W | Updated 49 seconds ago

Partly Cloudy
Partly Cloudy
27.0 °F
Feels Like 19 °F
N
8.0
Wind Variable Wind from SE
Gusts 15.0 mph

Today
High -- | Low -- °F
--% Chance of Precip.
Yesterday
High -- | Low -- °F
Precip. -- in
Pressure 29.42 in
Visibility 1.5 miles
Clouds Overcast 200 ft
Windchill 19 °F
Dew Point 20 °F
Humidity 76%
Rainfall 0.00 in
Snow Depth Not available.
8:08 AM 5:33 PM
Last Quarter, 41% visible
SPECI KLLJ 202002Z AUTO 00000KT 1 1/2SM BR OVC002 M09/M09 A2942 RMK AO2 T10891094
Pressure 29.42 in
Visibility 1.5 miles
Clouds Overcast 200 ft
Windchill 19 °F
Dew Point 20 °F
Humidity 76%
Rainfall 0.00 in
Snow Depth Not available.
8:08 AM 5:33 PM
Last Quarter, 41% visible
SPECI KLLJ 202002Z AUTO 00000KT 1 1/2SM BR OVC002 M09/M09 A2942 RMK AO2 T10891094

Get Your Daily Forecast Email!

Thanks for signing up!

Be on the lookout for a verification email in your inbox.

You'll start receiving the daily forecast at 8 AM.

×

10-Day Weather Forecast

Almanac

Astronomy

Jan. 20, 2017 Rise Set
Actual Time
Civil Twilight
Nautical Twilight
Astronomical Twilight
Moon
Length of Visible Light
Length of Day
Tomorrow will be .
, % of the Moon is Illuminated

Today's Extremes

State Highs State Lows

Community

WunderPhotos

Upload Photos

1,962,540 photos uploaded!

WunderBlog® & News

Nearby

Air Quality

  Air Quality AQ Index Pollutant
Not available.

Snow Depth

Station Depth Elevation

Earthquake Activity

City Distance Mag. Time & Date
Minimum magnitude displayed is 2.5.

Coastal Water Temperatures

Place Temperature

Stations

Nearby Weather Stations

Station Location Temp. Windchill Dew Point Humidity Wind Precip. Elev Updated Type
                   

Watches & Warnings

Areal Flood Advisory
Issued: 9:49 AM MST Jan. 16, 2017 – National Weather Service

The National Weather Service in Pocatello has extended the

* Flood Advisory for...
an ice jam in...
northern Custer County in central Idaho...

* until 300 PM MST Friday

* at 946 am MST, local law enforcement and blm personnel continue to
advise of an ice jam on the Salmon river causing flooding on the
Challis bridge recreation site. Much of the site is underwater and
the blm is implementing a temporary closure at the Challis bridge
recreation site until water recedes.

* Local law enforcement has closed this area and wishes to remind
residents to avoid any flooded areas.

Precautionary/preparedness actions...

Avoid flooded areas. Cold temperatures pose a safety concern if
people are stuck along the river without help. Hypothermia could set
in quickly if persons or pets become submerged in the cold water.

Report any additional rises of water along the Salmon river to local
law enforcement.


Lat... Lon 4445 11422 4445 11423 4449 11420 4449 11418


Valle